sensor_id;sensor_type;location;lat;lon;timestamp;P1;durP1;ratioP1;P2;durP2;ratioP2
20012;SDS011;10167;42.852;23.042;2023-12-29T00:01:06;1.88;;;0.63;;
20012;SDS011;10167;42.852;23.042;2023-12-29T00:03:35;3.28;;;0.88;;
20012;SDS011;10167;42.852;23.042;2023-12-29T00:06:05;2.05;;;1.95;;
20012;SDS011;10167;42.852;23.042;2023-12-29T00:08:36;2.05;;;1.63;;
20012;SDS011;10167;42.852;23.042;2023-12-29T00:11:06;1.40;;;1.30;;
20012;SDS011;10167;42.852;23.042;2023-12-29T00:13:35;2.55;;;0.88;;
20012;SDS011;10167;42.852;23.042;2023-12-29T00:16:05;2.97;;;1.95;;
20012;SDS011;10167;42.852;23.042;2023-12-29T00:18:36;1.63;;;1.52;;
20012;SDS011;10167;42.852;23.042;2023-12-29T00:21:06;5.68;;;2.65;;
20012;SDS011;10167;42.852;23.042;2023-12-29T00:23:35;2.08;;;1.92;;
20012;SDS011;10167;42.852;23.042;2023-12-29T00:26:06;2.75;;;2.17;;
20012;SDS011;10167;42.852;23.042;2023-12-29T00:28:36;1.08;;;0.65;;
20012;SDS011;10167;42.852;23.042;2023-12-29T00:31:07;2.35;;;2.15;;
20012;SDS011;10167;42.852;23.042;2023-12-29T00:33:37;4.95;;;2.42;;
20012;SDS011;10167;42.852;23.042;2023-12-29T00:36:14;2.00;;;1.85;;
20012;SDS011;10167;42.852;23.042;2023-12-29T00:38:44;2.22;;;1.38;;
20012;SDS011;10167;42.852;23.042;2023-12-29T00:41:15;2.42;;;2.20;;
20012;SDS011;10167;42.852;23.042;2023-12-29T00:43:44;1.10;;;1.08;;
20012;SDS011;10167;42.852;23.042;2023-12-29T00:46:14;2.65;;;1.95;;
20012;SDS011;10167;42.852;23.042;2023-12-29T00:48:44;1.90;;;1.42;;
20012;SDS011;10167;42.852;23.042;2023-12-29T00:51:13;2.00;;;1.88;;
20012;SDS011;10167;42.852;23.042;2023-12-29T00:53:42;1.33;;;1.30;;
20012;SDS011;10167;42.852;23.042;2023-12-29T00:56:11;5.07;;;2.75;;
20012;SDS011;10167;42.852;23.042;2023-12-29T00:58:42;3.75;;;1.38;;
20012;SDS011;10167;42.852;23.042;2023-12-29T01:01:11;1.80;;;1.33;;
20012;SDS011;10167;42.852;23.042;2023-12-29T01:03:41;2.72;;;2.53;;
20012;SDS011;10167;42.852;23.042;2023-12-29T01:06:11;0.82;;;0.82;;
20012;SDS011;10167;42.852;23.042;2023-12-29T01:08:40;3.83;;;1.38;;
20012;SDS011;10167;42.852;23.042;2023-12-29T01:11:09;0.55;;;0.55;;
20012;SDS011;10167;42.852;23.042;2023-12-29T01:13:39;1.17;;;1.08;;
20012;SDS011;10167;42.852;23.042;2023-12-29T01:16:09;2.33;;;0.98;;
20012;SDS011;10167;42.852;23.042;2023-12-29T01:18:38;1.65;;;1.50;;
20012;SDS011;10167;42.852;23.042;2023-12-29T01:21:08;3.20;;;2.60;;
20012;SDS011;10167;42.852;23.042;2023-12-29T01:23:37;1.40;;;1.33;;
20012;SDS011;10167;42.852;23.042;2023-12-29T01:26:06;2.90;;;1.95;;
20012;SDS011;10167;42.852;23.042;2023-12-29T01:28:35;1.98;;;1.88;;
20012;SDS011;10167;42.852;23.042;2023-12-29T01:31:05;3.30;;;1.92;;
20012;SDS011;10167;42.852;23.042;2023-12-29T01:33:37;2.28;;;1.27;;
20012;SDS011;10167;42.852;23.042;2023-12-29T01:36:07;0.98;;;0.75;;
20012;SDS011;10167;42.852;23.042;2023-12-29T01:38:44;1.00;;;1.00;;
20012;SDS011;10167;42.852;23.042;2023-12-29T01:41:13;1.13;;;1.10;;
20012;SDS011;10167;42.852;23.042;2023-12-29T01:46:52;4.25;;;2.00;;
20012;SDS011;10167;42.852;23.042;2023-12-29T01:49:24;1.77;;;1.67;;
20012;SDS011;10167;42.852;23.042;2023-12-29T01:51:54;1.38;;;1.27;;
20012;SDS011;10167;42.852;23.042;2023-12-29T01:54:26;0.60;;;0.60;;
20012;SDS011;10167;42.852;23.042;2023-12-29T01:57:01;1.38;;;1.10;;
20012;SDS011;10167;42.852;23.042;2023-12-29T01:59:31;1.27;;;1.17;;
20012;SDS011;10167;42.852;23.042;2023-12-29T02:02:00;0.95;;;0.95;;
20012;SDS011;10167;42.852;23.042;2023-12-29T02:04:32;2.25;;;2.03;;
20012;SDS011;10167;42.852;23.042;2023-12-29T02:07:05;2.72;;;1.27;;
20012;SDS011;10167;42.852;23.042;2023-12-29T02:09:34;2.25;;;1.08;;
20012;SDS011;10167;42.852;23.042;2023-12-29T02:12:05;0.73;;;0.73;;
20012;SDS011;10167;42.852;23.042;2023-12-29T02:14:35;1.05;;;1.05;;
20012;SDS011;10167;42.852;23.042;2023-12-29T02:17:05;6.25;;;1.45;;
20012;SDS011;10167;42.852;23.042;2023-12-29T02:19:41;0.75;;;0.75;;
20012;SDS011;10167;42.852;23.042;2023-12-29T02:22:12;1.42;;;1.33;;
20012;SDS011;10167;42.852;23.042;2023-12-29T02:24:46;0.68;;;0.68;;
20012;SDS011;10167;42.852;23.042;2023-12-29T02:27:23;1.05;;;1.02;;
20012;SDS011;10167;42.852;23.042;2023-12-29T02:30:03;6.43;;;1.10;;
20012;SDS011;10167;42.852;23.042;2023-12-29T02:32:42;2.92;;;1.50;;
20012;SDS011;10167;42.852;23.042;2023-12-29T02:35:17;0.38;;;0.38;;
20012;SDS011;10167;42.852;23.042;2023-12-29T02:37:49;3.83;;;1.02;;
20012;SDS011;10167;42.852;23.042;2023-12-29T02:40:20;0.70;;;0.70;;
20012;SDS011;10167;42.852;23.042;2023-12-29T02:42:49;0.80;;;0.80;;
20012;SDS011;10167;42.852;23.042;2023-12-29T02:45:18;0.47;;;0.47;;
20012;SDS011;10167;42.852;23.042;2023-12-29T02:47:48;1.13;;;0.80;;
20012;SDS011;10167;42.852;23.042;2023-12-29T02:50:17;0.65;;;0.65;;
20012;SDS011;10167;42.852;23.042;2023-12-29T02:52:47;0.98;;;0.73;;
20012;SDS011;10167;42.852;23.042;2023-12-29T02:55:16;2.38;;;1.92;;
20012;SDS011;10167;42.852;23.042;2023-12-29T02:57:47;3.00;;;2.08;;
20012;SDS011;10167;42.852;23.042;2023-12-29T03:00:16;0.77;;;0.77;;
20012;SDS011;10167;42.852;23.042;2023-12-29T03:02:46;1.05;;;1.00;;
20012;SDS011;10167;42.852;23.042;2023-12-29T03:05:15;1.35;;;1.13;;
20012;SDS011;10167;42.852;23.042;2023-12-29T03:07:45;7.07;;;1.17;;
20012;SDS011;10167;42.852;23.042;2023-12-29T03:10:17;0.75;;;0.60;;
20012;SDS011;10167;42.852;23.042;2023-12-29T03:12:48;0.80;;;0.80;;
20012;SDS011;10167;42.852;23.042;2023-12-29T03:15:17;1.67;;;1.45;;
20012;SDS011;10167;42.852;23.042;2023-12-29T03:17:47;0.65;;;0.65;;
20012;SDS011;10167;42.852;23.042;2023-12-29T03:20:16;1.17;;;1.10;;
20012;SDS011;10167;42.852;23.042;2023-12-29T03:22:46;1.67;;;1.30;;
20012;SDS011;10167;42.852;23.042;2023-12-29T03:25:15;1.50;;;1.30;;
20012;SDS011;10167;42.852;23.042;2023-12-29T03:27:44;1.58;;;1.48;;
20012;SDS011;10167;42.852;23.042;2023-12-29T03:30:16;1.20;;;1.10;;
20012;SDS011;10167;42.852;23.042;2023-12-29T03:32:45;4.68;;;1.65;;
20012;SDS011;10167;42.852;23.042;2023-12-29T03:35:14;0.98;;;0.98;;
20012;SDS011;10167;42.852;23.042;2023-12-29T03:37:43;4.65;;;1.73;;
20012;SDS011;10167;42.852;23.042;2023-12-29T03:40:13;1.65;;;1.55;;
20012;SDS011;10167;42.852;23.042;2023-12-29T03:42:44;2.50;;;0.63;;
20012;SDS011;10167;42.852;23.042;2023-12-29T03:45:14;0.82;;;0.82;;
20012;SDS011;10167;42.852;23.042;2023-12-29T03:47:44;0.20;;;0.20;;
20012;SDS011;10167;42.852;23.042;2023-12-29T03:50:14;1.08;;;1.08;;
20012;SDS011;10167;42.852;23.042;2023-12-29T03:52:43;0.80;;;0.80;;
20012;SDS011;10167;42.852;23.042;2023-12-29T03:55:12;3.75;;;1.35;;
20012;SDS011;10167;42.852;23.042;2023-12-29T03:57:42;4.13;;;1.60;;
20012;SDS011;10167;42.852;23.042;2023-12-29T04:00:12;0.65;;;0.65;;
20012;SDS011;10167;42.852;23.042;2023-12-29T04:02:44;2.55;;;2.17;;
20012;SDS011;10167;42.852;23.042;2023-12-29T04:05:13;1.02;;;1.02;;
20012;SDS011;10167;42.852;23.042;2023-12-29T04:07:42;3.83;;;1.92;;
20012;SDS011;10167;42.852;23.042;2023-12-29T04:10:12;1.95;;;1.65;;
20012;SDS011;10167;42.852;23.042;2023-12-29T04:12:41;1.77;;;1.67;;
20012;SDS011;10167;42.852;23.042;2023-12-29T04:15:10;1.42;;;1.33;;
20012;SDS011;10167;42.852;23.042;2023-12-29T04:17:40;0.93;;;0.93;;
20012;SDS011;10167;42.852;23.042;2023-12-29T04:20:11;7.57;;;2.05;;
20012;SDS011;10167;42.852;23.042;2023-12-29T04:22:41;3.30;;;3.00;;
20012;SDS011;10167;42.852;23.042;2023-12-29T04:25:10;1.88;;;1.65;;
20012;SDS011;10167;42.852;23.042;2023-12-29T04:27:39;1.52;;;1.42;;
20012;SDS011;10167;42.852;23.042;2023-12-29T04:30:08;5.68;;;4.07;;
20012;SDS011;10167;42.852;23.042;2023-12-29T04:32:38;4.00;;;1.75;;
20012;SDS011;10167;42.852;23.042;2023-12-29T04:35:13;3.03;;;1.85;;
20012;SDS011;10167;42.852;23.042;2023-12-29T04:37:43;6.90;;;4.20;;
20012;SDS011;10167;42.852;23.042;2023-12-29T04:40:13;2.65;;;2.40;;
20012;SDS011;10167;42.852;23.042;2023-12-29T04:42:42;7.65;;;4.28;;
20012;SDS011;10167;42.852;23.042;2023-12-29T04:45:12;10.82;;;7.13;;
20012;SDS011;10167;42.852;23.042;2023-12-29T04:47:41;19.05;;;7.93;;
20012;SDS011;10167;42.852;23.042;2023-12-29T04:50:10;14.85;;;11.65;;
20012;SDS011;10167;42.852;23.042;2023-12-29T04:52:41;14.52;;;10.60;;
20012;SDS011;10167;42.852;23.042;2023-12-29T04:55:10;6.07;;;3.13;;
20012;SDS011;10167;42.852;23.042;2023-12-29T04:57:40;2.53;;;2.30;;
20012;SDS011;10167;42.852;23.042;2023-12-29T05:00:13;1.20;;;1.15;;
20012;SDS011;10167;42.852;23.042;2023-12-29T05:02:43;2.88;;;2.58;;
20012;SDS011;10167;42.852;23.042;2023-12-29T05:05:15;1.42;;;1.33;;
20012;SDS011;10167;42.852;23.042;2023-12-29T05:07:46;1.73;;;1.60;;
20012;SDS011;10167;42.852;23.042;2023-12-29T05:10:15;3.45;;;3.13;;
20012;SDS011;10167;42.852;23.042;2023-12-29T05:12:44;2.83;;;2.63;;
20012;SDS011;10167;42.852;23.042;2023-12-29T05:15:13;3.25;;;1.83;;
20012;SDS011;10167;42.852;23.042;2023-12-29T05:17:42;1.42;;;1.33;;
20012;SDS011;10167;42.852;23.042;2023-12-29T05:20:11;2.45;;;2.25;;
20012;SDS011;10167;42.852;23.042;2023-12-29T05:22:40;1.88;;;1.17;;
20012;SDS011;10167;42.852;23.042;2023-12-29T05:25:11;5.72;;;4.03;;
20012;SDS011;10167;42.852;23.042;2023-12-29T05:27:41;3.13;;;2.13;;
20012;SDS011;10167;42.852;23.042;2023-12-29T05:30:11;4.25;;;2.95;;
20012;SDS011;10167;42.852;23.042;2023-12-29T05:32:41;4.43;;;3.03;;
20012;SDS011;10167;42.852;23.042;2023-12-29T05:35:10;5.78;;;3.45;;
20012;SDS011;10167;42.852;23.042;2023-12-29T05:37:40;1.77;;;1.67;;
20012;SDS011;10167;42.852;23.042;2023-12-29T05:40:11;4.35;;;2.85;;
20012;SDS011;10167;42.852;23.042;2023-12-29T05:42:43;2.08;;;1.80;;
20012;SDS011;10167;42.852;23.042;2023-12-29T05:45:13;5.22;;;4.50;;
20012;SDS011;10167;42.852;23.042;2023-12-29T05:47:44;12.60;;;4.35;;
20012;SDS011;10167;42.852;23.042;2023-12-29T05:50:13;13.68;;;4.63;;
20012;SDS011;10167;42.852;23.042;2023-12-29T05:52:43;3.80;;;3.13;;
20012;SDS011;10167;42.852;23.042;2023-12-29T05:55:13;5.45;;;3.25;;
20012;SDS011;10167;42.852;23.042;2023-12-29T05:57:44;3.03;;;2.70;;
20012;SDS011;10167;42.852;23.042;2023-12-29T06:00:13;6.53;;;5.53;;
20012;SDS011;10167;42.852;23.042;2023-12-29T06:02:43;2.13;;;1.92;;
20012;SDS011;10167;42.852;23.042;2023-12-29T06:05:12;4.45;;;2.35;;
20012;SDS011;10167;42.852;23.042;2023-12-29T06:07:42;3.70;;;1.60;;
20012;SDS011;10167;42.852;23.042;2023-12-29T06:10:11;3.72;;;3.13;;
20012;SDS011;10167;42.852;23.042;2023-12-29T06:12:42;2.33;;;2.17;;
20012;SDS011;10167;42.852;23.042;2023-12-29T06:15:12;2.45;;;2.13;;
20012;SDS011;10167;42.852;23.042;2023-12-29T06:17:43;3.35;;;3.03;;
20012;SDS011;10167;42.852;23.042;2023-12-29T06:20:12;5.15;;;2.30;;
20012;SDS011;10167;42.852;23.042;2023-12-29T06:22:42;2.60;;;2.40;;
20012;SDS011;10167;42.852;23.042;2023-12-29T06:25:11;2.25;;;2.05;;
20012;SDS011;10167;42.852;23.042;2023-12-29T06:27:42;3.53;;;2.22;;
20012;SDS011;10167;42.852;23.042;2023-12-29T06:30:12;3.95;;;3.08;;
20012;SDS011;10167;42.852;23.042;2023-12-29T06:32:42;6.32;;;3.28;;
20012;SDS011;10167;42.852;23.042;2023-12-29T06:35:11;11.45;;;2.38;;
20012;SDS011;10167;42.852;23.042;2023-12-29T06:37:41;14.05;;;3.67;;
20012;SDS011;10167;42.852;23.042;2023-12-29T06:40:10;2.97;;;2.78;;
20012;SDS011;10167;42.852;23.042;2023-12-29T06:42:40;2.58;;;1.95;;
20012;SDS011;10167;42.852;23.042;2023-12-29T06:45:11;1.00;;;0.90;;
20012;SDS011;10167;42.852;23.042;2023-12-29T06:47:40;1.60;;;1.50;;
20012;SDS011;10167;42.852;23.042;2023-12-29T06:50:09;3.22;;;2.53;;
20012;SDS011;10167;42.852;23.042;2023-12-29T06:52:40;5.95;;;5.38;;
20012;SDS011;10167;42.852;23.042;2023-12-29T06:55:10;8.60;;;6.15;;
20012;SDS011;10167;42.852;23.042;2023-12-29T06:57:39;13.00;;;9.80;;
20012;SDS011;10167;42.852;23.042;2023-12-29T07:00:11;3.63;;;3.35;;
20012;SDS011;10167;42.852;23.042;2023-12-29T07:02:41;12.88;;;8.27;;
20012;SDS011;10167;42.852;23.042;2023-12-29T07:05:10;5.45;;;3.90;;
20012;SDS011;10167;42.852;23.042;2023-12-29T07:07:39;17.90;;;9.32;;
20012;SDS011;10167;42.852;23.042;2023-12-29T07:10:11;24.15;;;11.65;;
20012;SDS011;10167;42.852;23.042;2023-12-29T07:12:43;17.27;;;9.25;;
20012;SDS011;10167;42.852;23.042;2023-12-29T07:15:14;9.80;;;8.82;;
20012;SDS011;10167;42.852;23.042;2023-12-29T07:17:43;11.75;;;7.28;;
20012;SDS011;10167;42.852;23.042;2023-12-29T07:20:13;5.68;;;5.20;;
20012;SDS011;10167;42.852;23.042;2023-12-29T07:22:42;3.85;;;3.45;;
20012;SDS011;10167;42.852;23.042;2023-12-29T07:25:12;4.60;;;3.90;;
20012;SDS011;10167;42.852;23.042;2023-12-29T07:27:43;5.10;;;3.90;;
20012;SDS011;10167;42.852;23.042;2023-12-29T07:30:15;7.13;;;4.78;;
20012;SDS011;10167;42.852;23.042;2023-12-29T07:32:45;4.78;;;4.05;;
20012;SDS011;10167;42.852;23.042;2023-12-29T07:35:15;5.93;;;3.75;;
20012;SDS011;10167;42.852;23.042;2023-12-29T07:37:45;3.42;;;3.13;;
20012;SDS011;10167;42.852;23.042;2023-12-29T07:40:15;5.50;;;3.28;;
20012;SDS011;10167;42.852;23.042;2023-12-29T07:42:44;8.55;;;5.90;;
20012;SDS011;10167;42.852;23.042;2023-12-29T07:45:19;6.63;;;5.30;;
20012;SDS011;10167;42.852;23.042;2023-12-29T07:47:48;10.15;;;6.65;;
20012;SDS011;10167;42.852;23.042;2023-12-29T07:50:17;6.50;;;5.00;;
20012;SDS011;10167;42.852;23.042;2023-12-29T07:52:46;6.63;;;5.68;;
20012;SDS011;10167;42.852;23.042;2023-12-29T07:55:15;5.68;;;4.82;;
20012;SDS011;10167;42.852;23.042;2023-12-29T07:57:45;17.27;;;7.95;;
20012;SDS011;10167;42.852;23.042;2023-12-29T08:00:15;9.32;;;6.63;;
20012;SDS011;10167;42.852;23.042;2023-12-29T08:02:47;12.30;;;7.97;;
20012;SDS011;10167;42.852;23.042;2023-12-29T08:05:16;16.23;;;7.43;;
20012;SDS011;10167;42.852;23.042;2023-12-29T08:07:45;16.77;;;9.10;;
20012;SDS011;10167;42.852;23.042;2023-12-29T08:10:15;17.17;;;8.82;;
20012;SDS011;10167;42.852;23.042;2023-12-29T08:12:44;18.77;;;10.27;;
20012;SDS011;10167;42.852;23.042;2023-12-29T08:15:13;12.23;;;5.63;;
20012;SDS011;10167;42.852;23.042;2023-12-29T08:17:42;9.10;;;6.55;;
20012;SDS011;10167;42.852;23.042;2023-12-29T08:20:13;8.13;;;4.82;;
20012;SDS011;10167;42.852;23.042;2023-12-29T08:22:43;8.05;;;6.72;;
20012;SDS011;10167;42.852;23.042;2023-12-29T08:25:12;18.73;;;8.73;;
20012;SDS011;10167;42.852;23.042;2023-12-29T08:27:42;11.60;;;6.50;;
20012;SDS011;10167;42.852;23.042;2023-12-29T08:30:11;15.40;;;8.02;;
20012;SDS011;10167;42.852;23.042;2023-12-29T08:32:41;8.00;;;5.28;;
20012;SDS011;10167;42.852;23.042;2023-12-29T08:35:10;27.70;;;10.57;;
20012;SDS011;10167;42.852;23.042;2023-12-29T08:37:41;11.88;;;5.70;;
20012;SDS011;10167;42.852;23.042;2023-12-29T08:40:11;8.50;;;3.63;;
20012;SDS011;10167;42.852;23.042;2023-12-29T08:42:40;7.60;;;3.88;;
20012;SDS011;10167;42.852;23.042;2023-12-29T08:45:10;16.77;;;6.05;;
20012;SDS011;10167;42.852;23.042;2023-12-29T08:47:40;7.50;;;3.22;;
20012;SDS011;10167;42.852;23.042;2023-12-29T08:50:10;13.85;;;4.95;;
20012;SDS011;10167;42.852;23.042;2023-12-29T08:52:39;10.93;;;3.83;;
20012;SDS011;10167;42.852;23.042;2023-12-29T08:55:10;35.92;;;9.95;;
20012;SDS011;10167;42.852;23.042;2023-12-29T08:57:39;14.57;;;6.00;;
20012;SDS011;10167;42.852;23.042;2023-12-29T09:00:09;12.25;;;3.42;;
20012;SDS011;10167;42.852;23.042;2023-12-29T09:02:38;10.45;;;3.65;;
20012;SDS011;10167;42.852;23.042;2023-12-29T09:05:08;3.78;;;2.83;;
20012;SDS011;10167;42.852;23.042;2023-12-29T09:07:37;10.02;;;5.00;;
20012;SDS011;10167;42.852;23.042;2023-12-29T09:10:06;11.63;;;4.90;;
20012;SDS011;10167;42.852;23.042;2023-12-29T09:12:40;5.38;;;3.67;;
20012;SDS011;10167;42.852;23.042;2023-12-29T09:15:09;8.18;;;4.65;;
20012;SDS011;10167;42.852;23.042;2023-12-29T09:17:38;4.70;;;2.85;;
20012;SDS011;10167;42.852;23.042;2023-12-29T09:20:08;7.28;;;3.72;;
20012;SDS011;10167;42.852;23.042;2023-12-29T09:22:38;6.47;;;2.45;;
20012;SDS011;10167;42.852;23.042;2023-12-29T09:25:08;3.65;;;2.28;;
20012;SDS011;10167;42.852;23.042;2023-12-29T09:27:37;7.60;;;3.13;;
20012;SDS011;10167;42.852;23.042;2023-12-29T09:30:09;8.95;;;3.88;;
20012;SDS011;10167;42.852;23.042;2023-12-29T09:32:39;10.15;;;5.43;;
20012;SDS011;10167;42.852;23.042;2023-12-29T09:35:08;8.07;;;3.83;;
20012;SDS011;10167;42.852;23.042;2023-12-29T09:37:38;4.13;;;3.67;;
20012;SDS011;10167;42.852;23.042;2023-12-29T09:40:08;7.05;;;3.63;;
20012;SDS011;10167;42.852;23.042;2023-12-29T09:42:39;14.02;;;5.03;;
20012;SDS011;10167;42.852;23.042;2023-12-29T09:45:13;9.70;;;5.78;;
20012;SDS011;10167;42.852;23.042;2023-12-29T09:47:48;10.90;;;6.47;;
20012;SDS011;10167;42.852;23.042;2023-12-29T09:50:20;8.27;;;5.38;;
20012;SDS011;10167;42.852;23.042;2023-12-29T09:52:50;7.53;;;4.32;;
20012;SDS011;10167;42.852;23.042;2023-12-29T09:55:21;8.55;;;3.83;;
20012;SDS011;10167;42.852;23.042;2023-12-29T09:57:51;7.28;;;3.33;;
20012;SDS011;10167;42.852;23.042;2023-12-29T10:00:22;5.28;;;2.58;;
20012;SDS011;10167;42.852;23.042;2023-12-29T10:02:51;5.35;;;3.03;;
20012;SDS011;10167;42.852;23.042;2023-12-29T10:05:21;11.65;;;4.00;;
20012;SDS011;10167;42.852;23.042;2023-12-29T10:07:51;12.20;;;4.55;;
20012;SDS011;10167;42.852;23.042;2023-12-29T10:10:22;3.58;;;3.13;;
20012;SDS011;10167;42.852;23.042;2023-12-29T10:12:52;6.95;;;3.40;;
20012;SDS011;10167;42.852;23.042;2023-12-29T10:15:27;8.70;;;3.53;;
20012;SDS011;10167;42.852;23.042;2023-12-29T10:18:06;4.28;;;3.40;;
20012;SDS011;10167;42.852;23.042;2023-12-29T10:20:44;5.03;;;2.53;;
20012;SDS011;10167;42.852;23.042;2023-12-29T10:23:19;5.25;;;3.08;;
20012;SDS011;10167;42.852;23.042;2023-12-29T10:25:55;2.63;;;2.03;;
20012;SDS011;10167;42.852;23.042;2023-12-29T10:28:26;6.97;;;3.75;;
20012;SDS011;10167;42.852;23.042;2023-12-29T10:30:56;5.55;;;3.10;;
20012;SDS011;10167;42.852;23.042;2023-12-29T10:33:26;8.10;;;4.00;;
20012;SDS011;10167;42.852;23.042;2023-12-29T10:35:58;4.38;;;2.97;;
20012;SDS011;10167;42.852;23.042;2023-12-29T10:38:31;4.88;;;2.90;;
20012;SDS011;10167;42.852;23.042;2023-12-29T10:41:10;4.05;;;2.70;;
20012;SDS011;10167;42.852;23.042;2023-12-29T10:43:40;4.85;;;2.58;;
20012;SDS011;10167;42.852;23.042;2023-12-29T10:46:12;6.97;;;3.25;;
20012;SDS011;10167;42.852;23.042;2023-12-29T10:48:42;3.28;;;1.67;;
20012;SDS011;10167;42.852;23.042;2023-12-29T10:51:12;3.75;;;3.08;;
20012;SDS011;10167;42.852;23.042;2023-12-29T10:53:41;2.97;;;2.65;;
20012;SDS011;10167;42.852;23.042;2023-12-29T10:56:16;11.63;;;4.43;;
20012;SDS011;10167;42.852;23.042;2023-12-29T10:58:56;3.67;;;2.28;;
20012;SDS011;10167;42.852;23.042;2023-12-29T11:01:28;4.15;;;3.00;;
20012;SDS011;10167;42.852;23.042;2023-12-29T11:03:59;5.38;;;3.85;;
20012;SDS011;10167;42.852;23.042;2023-12-29T11:06:29;10.63;;;3.88;;
20012;SDS011;10167;42.852;23.042;2023-12-29T11:09:07;2.15;;;1.95;;
20012;SDS011;10167;42.852;23.042;2023-12-29T11:11:39;7.05;;;2.63;;
20012;SDS011;10167;42.852;23.042;2023-12-29T11:14:08;3.10;;;2.58;;
20012;SDS011;10167;42.852;23.042;2023-12-29T11:16:41;7.93;;;4.60;;
20012;SDS011;10167;42.852;23.042;2023-12-29T11:19:13;6.10;;;3.10;;
20012;SDS011;10167;42.852;23.042;2023-12-29T11:21:43;6.05;;;2.67;;
20012;SDS011;10167;42.852;23.042;2023-12-29T11:24:14;3.03;;;2.80;;
20012;SDS011;10167;42.852;23.042;2023-12-29T11:26:53;6.70;;;4.03;;
20012;SDS011;10167;42.852;23.042;2023-12-29T11:29:23;4.72;;;3.42;;
20012;SDS011;10167;42.852;23.042;2023-12-29T11:31:55;2.78;;;1.50;;
20012;SDS011;10167;42.852;23.042;2023-12-29T11:34:30;3.03;;;1.95;;
20012;SDS011;10167;42.852;23.042;2023-12-29T11:37:05;6.43;;;4.05;;
20012;SDS011;10167;42.852;23.042;2023-12-29T11:39:48;5.55;;;2.63;;
20012;SDS011;10167;42.852;23.042;2023-12-29T11:42:23;3.58;;;2.85;;
20012;SDS011;10167;42.852;23.042;2023-12-29T11:44:59;14.02;;;3.88;;
20012;SDS011;10167;42.852;23.042;2023-12-29T11:47:56;12.15;;;3.40;;
20012;SDS011;10167;42.852;23.042;2023-12-29T11:50:28;4.80;;;3.65;;
20012;SDS011;10167;42.852;23.042;2023-12-29T11:52:59;5.97;;;3.95;;
20012;SDS011;10167;42.852;23.042;2023-12-29T11:55:30;14.30;;;6.47;;
20012;SDS011;10167;42.852;23.042;2023-12-29T11:57:59;1.98;;;1.48;;
20012;SDS011;10167;42.852;23.042;2023-12-29T12:00:43;1.20;;;1.10;;
20012;SDS011;10167;42.852;23.042;2023-12-29T12:03:16;2.33;;;1.80;;
20012;SDS011;10167;42.852;23.042;2023-12-29T12:05:49;0.50;;;0.28;;
20012;SDS011;10167;42.852;23.042;2023-12-29T12:08:28;0.63;;;0.47;;
20012;SDS011;10167;42.852;23.042;2023-12-29T12:14:01;1.27;;;1.05;;
20012;SDS011;10167;42.852;23.042;2023-12-29T12:16:49;0.52;;;0.52;;
20012;SDS011;10167;42.852;23.042;2023-12-29T12:19:22;2.42;;;1.30;;
20012;SDS011;10167;42.852;23.042;2023-12-29T12:21:54;0.98;;;0.47;;
20012;SDS011;10167;42.852;23.042;2023-12-29T12:24:24;0.68;;;0.50;;
20012;SDS011;10167;42.852;23.042;2023-12-29T12:26:54;2.25;;;1.45;;
20012;SDS011;10167;42.852;23.042;2023-12-29T12:29:23;4.78;;;1.40;;
20012;SDS011;10167;42.852;23.042;2023-12-29T12:31:54;1.80;;;1.42;;
20012;SDS011;10167;42.852;23.042;2023-12-29T12:34:25;2.72;;;0.93;;
20012;SDS011;10167;42.852;23.042;2023-12-29T12:37:05;2.20;;;1.05;;
20012;SDS011;10167;42.852;23.042;2023-12-29T12:39:38;6.43;;;2.53;;
20012;SDS011;10167;42.852;23.042;2023-12-29T12:42:08;0.82;;;0.77;;
20012;SDS011;10167;42.852;23.042;2023-12-29T12:44:38;0.50;;;0.50;;
20012;SDS011;10167;42.852;23.042;2023-12-29T12:47:14;1.85;;;0.75;;
20012;SDS011;10167;42.852;23.042;2023-12-29T12:49:48;1.13;;;0.85;;
20012;SDS011;10167;42.852;23.042;2023-12-29T12:52:17;1.90;;;1.00;;
20012;SDS011;10167;42.852;23.042;2023-12-29T12:54:47;1.60;;;0.77;;
20012;SDS011;10167;42.852;23.042;2023-12-29T12:57:20;0.90;;;0.73;;
20012;SDS011;10167;42.852;23.042;2023-12-29T13:02:22;3.97;;;1.35;;
20012;SDS011;10167;42.852;23.042;2023-12-29T13:04:53;5.25;;;2.40;;
20012;SDS011;10167;42.852;23.042;2023-12-29T13:07:26;5.10;;;2.92;;
20012;SDS011;10167;42.852;23.042;2023-12-29T13:09:56;1.52;;;1.15;;
20012;SDS011;10167;42.852;23.042;2023-12-29T13:12:26;24.83;;;3.72;;
20012;SDS011;10167;42.852;23.042;2023-12-29T13:15:04;6.05;;;2.67;;
20012;SDS011;10167;42.852;23.042;2023-12-29T13:17:35;29.88;;;3.47;;
20012;SDS011;10167;42.852;23.042;2023-12-29T13:20:07;11.85;;;2.83;;
20012;SDS011;10167;42.852;23.042;2023-12-29T13:22:37;10.82;;;3.97;;
20012;SDS011;10167;42.852;23.042;2023-12-29T13:25:07;21.85;;;4.63;;
20012;SDS011;10167;42.852;23.042;2023-12-29T13:27:39;5.25;;;2.75;;
20012;SDS011;10167;42.852;23.042;2023-12-29T13:30:09;17.35;;;4.63;;
20012;SDS011;10167;42.852;23.042;2023-12-29T13:35:16;19.05;;;7.28;;
20012;SDS011;10167;42.852;23.042;2023-12-29T13:37:50;33.13;;;10.85;;
20012;SDS011;10167;42.852;23.042;2023-12-29T13:40:28;28.80;;;8.50;;
20012;SDS011;10167;42.852;23.042;2023-12-29T13:43:04;10.25;;;5.07;;
20012;SDS011;10167;42.852;23.042;2023-12-29T13:45:38;7.43;;;2.38;;
20012;SDS011;10167;42.852;23.042;2023-12-29T13:48:11;5.68;;;2.63;;
20012;SDS011;10167;42.852;23.042;2023-12-29T13:50:46;10.90;;;2.65;;
20012;SDS011;10167;42.852;23.042;2023-12-29T13:53:17;5.00;;;1.85;;
20012;SDS011;10167;42.852;23.042;2023-12-29T13:55:47;3.05;;;1.75;;
20012;SDS011;10167;42.852;23.042;2023-12-29T13:58:16;6.32;;;1.10;;
20012;SDS011;10167;42.852;23.042;2023-12-29T14:00:46;6.78;;;2.35;;
20012;SDS011;10167;42.852;23.042;2023-12-29T14:03:27;8.57;;;4.15;;
20012;SDS011;10167;42.852;23.042;2023-12-29T14:06:03;2.05;;;1.52;;
20012;SDS011;10167;42.852;23.042;2023-12-29T14:08:33;2.75;;;1.55;;
20012;SDS011;10167;42.852;23.042;2023-12-29T14:11:08;2.80;;;1.73;;
20012;SDS011;10167;42.852;23.042;2023-12-29T14:13:40;4.28;;;1.92;;
20012;SDS011;10167;42.852;23.042;2023-12-29T14:16:11;2.80;;;1.33;;
20012;SDS011;10167;42.852;23.042;2023-12-29T14:18:50;2.63;;;1.60;;
20012;SDS011;10167;42.852;23.042;2023-12-29T14:21:24;2.20;;;1.58;;
20012;SDS011;10167;42.852;23.042;2023-12-29T14:24:05;3.00;;;2.08;;
20012;SDS011;10167;42.852;23.042;2023-12-29T14:26:37;2.63;;;1.48;;
20012;SDS011;10167;42.852;23.042;2023-12-29T14:29:08;3.95;;;2.45;;
20012;SDS011;10167;42.852;23.042;2023-12-29T14:31:39;4.60;;;2.80;;
20012;SDS011;10167;42.852;23.042;2023-12-29T14:34:10;2.60;;;2.05;;
20012;SDS011;10167;42.852;23.042;2023-12-29T14:36:42;9.88;;;2.22;;
20012;SDS011;10167;42.852;23.042;2023-12-29T14:39:12;5.45;;;3.05;;
20012;SDS011;10167;42.852;23.042;2023-12-29T14:41:43;4.78;;;2.55;;
20012;SDS011;10167;42.852;23.042;2023-12-29T14:44:13;2.72;;;2.47;;
20012;SDS011;10167;42.852;23.042;2023-12-29T14:46:42;4.07;;;2.83;;
20012;SDS011;10167;42.852;23.042;2023-12-29T14:49:11;5.50;;;2.58;;
20012;SDS011;10167;42.852;23.042;2023-12-29T14:51:42;3.85;;;1.98;;
20012;SDS011;10167;42.852;23.042;2023-12-29T14:54:12;5.60;;;2.67;;
20012;SDS011;10167;42.852;23.042;2023-12-29T14:56:41;2.55;;;1.60;;
20012;SDS011;10167;42.852;23.042;2023-12-29T14:59:10;2.15;;;1.85;;
20012;SDS011;10167;42.852;23.042;2023-12-29T15:01:39;7.68;;;4.45;;
20012;SDS011;10167;42.852;23.042;2023-12-29T15:04:09;7.70;;;3.65;;
20012;SDS011;10167;42.852;23.042;2023-12-29T15:06:42;31.92;;;2.35;;